createdAt,value
2018-11-05T00:00:19.572Z,14.93
2018-11-05T00:02:49.840Z,16.07
2018-11-05T00:05:18.442Z,15.77
2018-11-05T00:07:46.906Z,16.47
2018-11-05T00:10:15.378Z,15.97
2018-11-05T00:12:43.887Z,15.83
2018-11-05T00:15:12.355Z,15.90
2018-11-05T00:17:40.827Z,16.43
2018-11-05T00:20:10.507Z,16.43
2018-11-05T00:22:39.112Z,15.70
2018-11-05T00:25:09.373Z,16.00
2018-11-05T00:27:37.863Z,16.70
2018-11-05T00:30:07.331Z,17.20
2018-11-05T00:32:35.834Z,17.93
2018-11-05T00:35:04.525Z,16.60
2018-11-05T00:37:33.127Z,16.80
2018-11-05T00:40:01.613Z,16.37
2018-11-05T00:42:30.328Z,17.40
2018-11-05T00:44:58.980Z,17.27
2018-11-05T00:47:27.437Z,18.00
2018-11-05T00:49:55.911Z,17.03
2018-11-05T00:52:24.414Z,16.17
2018-11-05T00:54:52.929Z,17.60
2018-11-05T00:57:21.403Z,18.07
2018-11-05T00:59:50.151Z,17.07
2018-11-05T01:02:18.652Z,16.33
2018-11-05T01:04:47.125Z,17.83
2018-11-05T01:07:15.603Z,16.50
2018-11-05T01:09:44.183Z,17.53
2018-11-05T01:12:12.654Z,17.30
2018-11-05T01:14:41.122Z,17.43
2018-11-05T01:17:09.734Z,17.50
2018-11-05T01:19:38.198Z,16.23
2018-11-05T01:22:06.690Z,17.60
2018-11-05T01:24:35.174Z,17.43
2018-11-05T01:27:03.646Z,17.33
2018-11-05T01:29:32.123Z,17.37
2018-11-05T01:32:00.600Z,16.70
2018-11-05T01:34:29.073Z,17.33
2018-11-05T01:36:57.570Z,17.30
2018-11-05T01:39:26.048Z,17.40
2018-11-05T01:41:54.584Z,17.07
2018-11-05T01:44:23.054Z,17.63
2018-11-05T01:46:51.585Z,17.70
2018-11-05T01:49:20.058Z,18.00
2018-11-05T01:51:48.627Z,17.23
2018-11-05T01:54:17.122Z,18.63
2018-11-05T01:56:45.587Z,18.40
2018-11-05T01:59:14.062Z,17.33
2018-11-05T02:01:42.711Z,17.80
2018-11-05T02:04:11.195Z,18.53
2018-11-05T02:06:39.679Z,17.67
2018-11-05T02:09:09.286Z,18.37
2018-11-05T02:11:37.760Z,18.03
2018-11-05T02:14:06.250Z,18.47
2018-11-05T02:16:34.728Z,17.00
2018-11-05T02:19:03.206Z,18.63
2018-11-05T02:21:31.675Z,19.00
2018-11-05T02:24:00.144Z,19.07
2018-11-05T02:26:28.605Z,19.17
2018-11-05T02:28:57.088Z,17.97
2018-11-05T02:31:25.584Z,18.73
2018-11-05T02:33:54.077Z,19.17
2018-11-05T02:36:22.650Z,17.57
2018-11-05T02:38:51.114Z,19.80
2018-11-05T02:41:19.591Z,18.93
2018-11-05T02:43:48.056Z,19.10
2018-11-05T02:46:16.524Z,18.47
2018-11-05T02:48:44.995Z,18.60
2018-11-05T02:51:13.458Z,19.63
2018-11-05T02:53:41.918Z,18.67
2018-11-05T02:56:10.386Z,20.17
2018-11-05T02:58:38.881Z,19.70
2018-11-05T03:01:07.651Z,19.30
2018-11-05T03:03:36.128Z,19.37
2018-11-05T03:06:04.625Z,19.90
2018-11-05T03:08:33.103Z,20.23
2018-11-05T03:11:01.674Z,19.90
2018-11-05T03:13:30.147Z,19.30
2018-11-05T03:15:58.629Z,18.87
2018-11-05T03:18:27.099Z,20.57
2018-11-05T03:20:55.549Z,20.70
2018-11-05T03:23:24.029Z,19.27
2018-11-05T03:25:52.528Z,19.97
2018-11-05T03:28:21.018Z,21.17
2018-11-05T03:30:49.498Z,21.30
2018-11-05T03:33:17.966Z,20.03
2018-11-05T03:35:46.506Z,18.93
2018-11-05T03:38:14.951Z,20.10
2018-11-05T03:40:43.470Z,20.00
2018-11-05T03:43:11.957Z,19.90
2018-11-05T03:45:40.456Z,20.07
2018-11-05T03:48:08.962Z,19.47
2018-11-05T03:50:37.437Z,20.83
2018-11-05T03:53:06.267Z,20.17
2018-11-05T03:55:34.814Z,20.67
2018-11-05T03:58:03.303Z,20.33
2018-11-05T04:00:31.794Z,19.73
2018-11-05T04:03:00.298Z,20.57
2018-11-05T04:05:28.774Z,20.63
2018-11-05T04:07:57.259Z,20.20
2018-11-05T04:10:25.733Z,21.53
2018-11-05T04:12:54.224Z,20.03
2018-11-05T04:15:22.779Z,19.40
2018-11-05T04:17:51.205Z,19.83
2018-11-05T04:20:19.692Z,19.77
2018-11-05T04:22:48.210Z,21.17
2018-11-05T04:25:16.727Z,20.23
2018-11-05T04:27:45.258Z,20.80
2018-11-05T04:30:14.757Z,20.93
2018-11-05T04:32:43.554Z,20.60
2018-11-05T04:35:12.538Z,20.10
2018-11-05T04:37:41.074Z,21.20
2018-11-05T04:40:10.733Z,21.10
2018-11-05T04:42:39.264Z,20.33
2018-11-05T04:45:09.285Z,21.07
2018-11-05T04:47:37.803Z,21.07
2018-11-05T04:50:07.366Z,22.13
2018-11-05T04:52:35.864Z,21.30
2018-11-05T04:55:04.374Z,21.13
2018-11-05T04:57:33.149Z,19.97
2018-11-05T05:00:05.763Z,20.63
2018-11-05T05:02:34.283Z,21.30
2018-11-05T05:05:02.772Z,21.33
2018-11-05T05:07:31.302Z,20.97
2018-11-05T05:09:59.812Z,20.73
2018-11-05T05:12:28.302Z,21.13
2018-11-05T05:14:56.892Z,20.63
2018-11-05T05:17:25.403Z,20.50
2018-11-05T05:19:53.903Z,20.77
2018-11-05T05:22:22.444Z,21.60
2018-11-05T05:24:50.929Z,21.13
2018-11-05T05:27:19.410Z,21.27
2018-11-05T05:29:47.901Z,21.93
2018-11-05T05:32:16.395Z,20.47
2018-11-05T05:34:44.896Z,20.20
2018-11-05T05:37:13.386Z,20.97
2018-11-05T05:39:41.879Z,19.37
2018-11-05T05:42:10.443Z,20.33
2018-11-05T05:44:38.904Z,20.60
2018-11-05T05:47:07.421Z,20.43
2018-11-05T05:49:36.265Z,20.67
2018-11-05T05:52:04.739Z,21.20
2018-11-05T05:54:33.227Z,19.83
2018-11-05T05:57:01.743Z,20.17
2018-11-05T05:59:30.223Z,20.77
2018-11-05T06:01:58.699Z,21.87
2018-11-05T06:04:27.235Z,21.53
2018-11-05T06:06:55.875Z,19.87
2018-11-05T06:09:24.375Z,20.20
2018-11-05T06:11:52.867Z,20.00
2018-11-05T06:14:21.380Z,20.90
2018-11-05T06:16:49.975Z,21.37
2018-11-05T06:19:18.465Z,20.17
2018-11-05T06:21:46.997Z,21.80
2018-11-05T06:24:15.498Z,22.10
2018-11-05T06:26:44.007Z,21.20
2018-11-05T06:29:12.505Z,20.80
2018-11-05T06:31:40.991Z,21.10
2018-11-05T06:34:09.474Z,20.60
2018-11-05T06:36:38.046Z,20.90
2018-11-05T06:39:11.243Z,23.53
2018-11-05T06:41:39.998Z,21.30
2018-11-05T06:44:08.600Z,20.97
2018-11-05T06:46:37.111Z,22.70
2018-11-05T06:49:06.170Z,21.27
2018-11-05T06:51:34.663Z,20.40
2018-11-05T06:54:04.023Z,21.63
2018-11-05T06:56:32.608Z,22.50
2018-11-05T06:59:01.189Z,22.23
2018-11-05T07:01:30.622Z,21.47
2018-11-05T07:03:59.135Z,22.17
2018-11-05T07:06:27.875Z,20.93
2018-11-05T07:08:56.359Z,22.77
2018-11-05T07:11:24.910Z,21.93
2018-11-05T07:13:53.389Z,21.13
2018-11-05T07:16:21.857Z,20.70
2018-11-05T07:18:50.603Z,21.33
2018-11-05T07:21:19.192Z,21.67
2018-11-05T07:23:47.697Z,21.53
2018-11-05T07:26:16.203Z,21.50
2018-11-05T07:28:44.674Z,20.13
2018-11-05T07:31:13.203Z,21.17
2018-11-05T07:33:41.800Z,22.33
2018-11-05T07:36:10.223Z,20.27
2018-11-05T07:38:38.707Z,21.57
2018-11-05T07:41:07.213Z,21.23
2018-11-05T07:43:35.731Z,21.27
2018-11-05T07:46:04.219Z,21.47
2018-11-05T07:48:32.697Z,21.43
2018-11-05T07:51:01.177Z,20.57
2018-11-05T07:53:29.670Z,21.17
2018-11-05T07:55:58.263Z,21.47
2018-11-05T07:58:26.727Z,20.67
2018-11-05T08:00:57.352Z,21.17
2018-11-05T08:03:26.323Z,22.50
2018-11-05T08:05:55.323Z,21.93
2018-11-05T08:08:23.881Z,23.40
2018-11-05T08:10:52.332Z,21.43
2018-11-05T08:13:20.822Z,22.73
2018-11-05T08:15:49.324Z,22.57
2018-11-05T08:18:17.798Z,22.33
2018-11-05T08:20:46.287Z,22.80
2018-11-05T08:23:14.767Z,23.33
2018-11-05T08:25:43.256Z,21.97
2018-11-05T08:28:11.742Z,22.50
2018-11-05T08:30:40.213Z,22.33
2018-11-05T08:33:08.691Z,22.07
2018-11-05T08:35:37.177Z,22.80
2018-11-05T08:38:05.790Z,23.10
2018-11-05T08:40:34.278Z,22.13
2018-11-05T08:43:02.753Z,22.67
2018-11-05T08:45:31.514Z,21.77
2018-11-05T08:48:00.024Z,23.50
2018-11-05T08:50:28.568Z,21.80
2018-11-05T08:52:57.012Z,22.03
2018-11-05T08:55:26.613Z,21.57
2018-11-05T08:57:55.141Z,22.03
2018-11-05T09:00:28.976Z,22.90
2018-11-05T09:02:57.462Z,22.23
2018-11-05T09:05:25.983Z,23.73
2018-11-05T09:07:55.235Z,22.70
2018-11-05T09:10:23.920Z,22.97
2018-11-05T09:12:52.255Z,22.03
2018-11-05T09:15:21.596Z,23.00
2018-11-05T09:17:50.183Z,22.53
2018-11-05T09:20:19.510Z,21.50
2018-11-05T09:22:48.783Z,21.30
2018-11-05T09:25:17.647Z,21.10
2018-11-05T09:27:46.131Z,21.50
2018-11-05T09:30:16.580Z,21.13
2018-11-05T09:32:45.792Z,21.70
2018-11-05T09:35:14.279Z,21.40
2018-11-05T09:37:42.782Z,21.47
2018-11-05T09:40:14.036Z,20.70
2018-11-05T09:42:43.051Z,21.60
2018-11-05T09:45:17.032Z,20.30
2018-11-05T09:47:46.217Z,19.60
2018-11-05T09:50:15.062Z,19.57
2018-11-05T09:52:43.525Z,20.70
2018-11-05T09:55:12.756Z,19.30
2018-11-05T09:57:41.635Z,18.60
2018-11-05T10:00:12.870Z,18.97
2018-11-05T10:02:46.556Z,20.03
2018-11-05T10:05:15.494Z,19.47
2018-11-05T10:07:44.271Z,18.10
2018-11-05T10:10:13.510Z,19.90
2018-11-05T10:12:42.355Z,19.13
2018-11-05T10:15:12.106Z,18.83
2018-11-05T10:17:40.966Z,19.10
2018-11-05T10:20:13.280Z,17.20
2018-11-05T10:22:41.921Z,18.00
2018-11-05T10:25:11.448Z,17.77
2018-11-05T10:27:39.894Z,18.47
2018-11-05T10:30:13.665Z,18.20
2018-11-05T10:32:42.607Z,17.03
2018-11-05T10:35:11.474Z,17.13
2018-11-05T10:37:40.269Z,17.33
2018-11-05T10:40:13.280Z,16.73
2018-11-05T10:42:42.474Z,17.20
2018-11-05T10:45:12.382Z,16.73
2018-11-05T10:47:40.918Z,16.67
2018-11-05T10:50:10.687Z,16.70
2018-11-05T10:52:39.170Z,16.97
2018-11-05T10:55:08.059Z,17.27
2018-11-05T10:57:36.526Z,16.93
2018-11-05T11:00:07.544Z,16.10
2018-11-05T11:02:38.581Z,16.17
2018-11-05T11:05:07.892Z,16.17
2018-11-05T11:07:36.460Z,15.50
2018-11-05T11:10:05.857Z,15.90
2018-11-05T11:12:34.351Z,16.20
2018-11-05T11:15:02.856Z,15.80
2018-11-05T11:17:31.347Z,16.03
2018-11-05T11:19:59.866Z,14.70
2018-11-05T11:22:28.339Z,15.37
2018-11-05T11:24:56.811Z,14.60
2018-11-05T11:27:25.279Z,15.47
2018-11-05T11:29:53.747Z,15.20
2018-11-05T11:32:22.214Z,15.60
2018-11-05T11:34:50.715Z,14.77
2018-11-05T11:37:19.289Z,14.63
2018-11-05T11:39:47.695Z,14.13
2018-11-05T11:42:16.178Z,14.60
2018-11-05T11:44:44.788Z,14.30
2018-11-05T11:47:13.283Z,15.00
2018-11-05T11:49:41.747Z,14.80
2018-11-05T11:52:10.236Z,15.27
2018-11-05T11:54:38.748Z,14.70
2018-11-05T11:57:07.377Z,13.87
2018-11-05T11:59:35.882Z,14.23
2018-11-05T12:02:09.958Z,14.10
2018-11-05T12:04:38.436Z,13.83
2018-11-05T12:07:07.294Z,13.77
2018-11-05T12:09:35.797Z,14.53
2018-11-05T12:12:04.463Z,13.57
2018-11-05T12:14:32.977Z,13.50
2018-11-05T12:17:01.467Z,13.60
2018-11-05T12:19:29.952Z,12.90
2018-11-05T12:21:58.450Z,13.60
2018-11-05T12:24:26.948Z,12.73
2018-11-05T12:26:55.511Z,13.03
2018-11-05T12:29:23.973Z,13.30
2018-11-05T12:31:52.446Z,13.67
2018-11-05T12:34:20.923Z,13.07
2018-11-05T12:36:49.508Z,12.63
2018-11-05T12:39:18.030Z,13.30
2018-11-05T12:41:46.495Z,11.93
2018-11-05T12:44:14.963Z,13.10
2018-11-05T12:46:43.431Z,12.30
2018-11-05T12:49:12.117Z,12.70
2018-11-05T12:51:40.586Z,12.37
2018-11-05T12:54:09.066Z,12.00
2018-11-05T12:56:37.538Z,12.03
2018-11-05T12:59:06.040Z,12.47
2018-11-05T13:01:34.504Z,12.47
2018-11-05T13:04:03.010Z,11.57
2018-11-05T13:06:31.502Z,11.67
2018-11-05T13:09:00.009Z,11.00
2018-11-05T13:11:28.457Z,11.83
2018-11-05T13:13:56.937Z,11.47
2018-11-05T13:16:25.403Z,11.13
2018-11-05T13:18:54.106Z,11.17
2018-11-05T13:21:22.610Z,11.00
2018-11-05T13:23:51.088Z,11.63
2018-11-05T13:26:19.545Z,12.10
2018-11-05T13:28:48.030Z,11.73
2018-11-05T13:31:16.508Z,11.13
2018-11-05T13:33:45.019Z,11.17
2018-11-05T13:36:13.487Z,10.93
2018-11-05T13:38:41.980Z,11.30
2018-11-05T13:41:10.438Z,10.30
2018-11-05T13:43:38.931Z,11.00
2018-11-05T13:46:07.693Z,10.80
2018-11-05T13:48:36.169Z,10.97
2018-11-05T13:51:04.514Z,10.47
2018-11-05T13:53:33.087Z,10.70
2018-11-05T13:56:01.541Z,10.23
2018-11-05T13:58:30.214Z,10.67
2018-11-05T14:00:58.728Z,10.70
2018-11-05T14:03:27.244Z,10.20
2018-11-05T14:05:55.833Z,10.67
2018-11-05T14:08:24.286Z,10.63
2018-11-05T14:10:52.890Z,10.73
2018-11-05T14:13:21.342Z,10.40
2018-11-05T14:15:49.819Z,10.73
2018-11-05T14:18:18.397Z,10.50
2018-11-05T14:20:46.786Z,10.10
2018-11-05T14:23:15.267Z,9.87
2018-11-05T14:25:43.983Z,9.60
2018-11-05T14:28:12.709Z,11.07
2018-11-05T14:30:40.802Z,10.07
2018-11-05T14:33:09.279Z,10.03
2018-11-05T14:35:37.744Z,9.13
2018-11-05T14:38:06.597Z,10.37
2018-11-05T14:40:35.044Z,10.40
2018-11-05T14:43:03.538Z,9.33
2018-11-05T14:45:31.988Z,10.77
2018-11-05T14:48:00.466Z,10.40
2018-11-05T14:50:28.944Z,10.03
2018-11-05T14:52:57.410Z,9.03
2018-11-05T14:55:25.934Z,10.10
2018-11-05T14:57:54.418Z,10.00
2018-11-05T15:00:27.055Z,9.50
2018-11-05T15:02:56.407Z,9.50
2018-11-05T15:05:24.877Z,9.47
2018-11-05T15:07:53.343Z,9.10
2018-11-05T15:10:24.101Z,9.73
2018-11-05T15:12:52.597Z,9.83
2018-11-05T15:15:21.798Z,9.33
2018-11-05T15:17:50.319Z,8.73
2018-11-05T15:20:20.247Z,9.87
2018-11-05T15:22:48.551Z,9.73
2018-11-05T15:25:17.213Z,9.73
2018-11-05T15:27:45.691Z,9.13
2018-11-05T15:30:17.273Z,8.70
2018-11-05T15:32:46.011Z,9.77
2018-11-05T15:35:14.747Z,9.70
2018-11-05T15:37:43.567Z,10.20
2018-11-05T15:40:14.802Z,9.00
2018-11-05T15:42:43.294Z,9.43
2018-11-05T15:45:14.050Z,10.37
2018-11-05T15:47:43.018Z,8.87
2018-11-05T15:50:13.948Z,9.47
2018-11-05T15:52:42.846Z,9.43
2018-11-05T15:55:11.058Z,8.97
2018-11-05T15:57:39.924Z,8.97
2018-11-05T16:00:30.637Z,9.67
2018-11-05T16:03:00.402Z,9.47
2018-11-05T16:05:28.877Z,8.77
2018-11-05T16:07:57.392Z,8.60
2018-11-05T16:10:26.046Z,8.97
2018-11-05T16:12:54.730Z,8.57
2018-11-05T16:15:23.247Z,8.83
2018-11-05T16:17:51.702Z,8.97
2018-11-05T16:20:21.526Z,8.93
2018-11-05T16:22:50.911Z,9.10
2018-11-05T16:25:19.405Z,8.70
2018-11-05T16:27:47.903Z,8.67
2018-11-05T16:30:17.712Z,8.13
2018-11-05T16:32:46.813Z,8.53
2018-11-05T16:35:15.302Z,8.60
2018-11-05T16:37:43.948Z,8.27
2018-11-05T16:40:14.254Z,8.00
2018-11-05T16:42:43.288Z,8.17
2018-11-05T16:45:11.952Z,8.47
2018-11-05T16:47:41.051Z,8.53
2018-11-05T16:50:24.718Z,8.77
2018-11-05T16:52:53.206Z,8.10
2018-11-05T16:55:21.668Z,9.23
2018-11-05T16:57:50.192Z,8.03
2018-11-05T17:00:18.943Z,8.63
2018-11-05T17:02:48.060Z,8.87
2018-11-05T17:05:16.382Z,8.30
2018-11-05T17:07:44.859Z,8.27
2018-11-05T17:10:14.228Z,7.90
2018-11-05T17:12:43.273Z,8.23
2018-11-05T17:15:13.278Z,8.13
2018-11-05T17:17:42.369Z,8.20
2018-11-05T17:20:12.641Z,7.83
2018-11-05T17:22:41.618Z,8.90
2018-11-05T17:25:10.788Z,7.83
2018-11-05T17:27:39.487Z,8.67
2018-11-05T17:30:14.404Z,8.43
2018-11-05T17:32:43.407Z,8.20
2018-11-05T17:35:12.222Z,8.63
2018-11-05T17:37:40.702Z,7.90
2018-11-05T17:40:11.708Z,8.60
2018-11-05T17:42:40.402Z,8.47
2018-11-05T17:45:10.638Z,8.03
2018-11-05T17:47:39.424Z,8.43
2018-11-05T17:50:10.763Z,8.07
2018-11-05T17:52:39.448Z,7.80
2018-11-05T17:55:08.535Z,8.10
2018-11-05T17:57:37.011Z,7.43
2018-11-05T18:00:07.273Z,7.70
2018-11-05T18:02:35.747Z,8.53
2018-11-05T18:05:04.217Z,8.10
2018-11-05T18:07:32.680Z,7.90
2018-11-05T18:10:01.165Z,8.07
2018-11-05T18:12:29.640Z,8.20
2018-11-05T18:14:58.941Z,8.07
2018-11-05T18:17:27.457Z,7.43
2018-11-05T18:19:56.640Z,7.17
2018-11-05T18:22:25.406Z,7.73
2018-11-05T18:24:53.967Z,8.00
2018-11-05T18:27:22.459Z,8.60
2018-11-05T18:29:50.931Z,7.43
2018-11-05T18:32:20.799Z,8.23
2018-11-05T18:34:52.013Z,7.87
2018-11-05T18:37:20.844Z,7.50
2018-11-05T18:39:49.592Z,7.80
2018-11-05T18:42:18.058Z,7.70
2018-11-05T18:44:46.528Z,7.30
2018-11-05T18:47:14.992Z,7.77
2018-11-05T18:49:43.465Z,8.20
2018-11-05T18:52:11.926Z,7.33
2018-11-05T18:54:40.420Z,7.60
2018-11-05T18:57:09.156Z,7.70
2018-11-05T18:59:37.579Z,7.63
2018-11-05T19:02:06.056Z,7.00
2018-11-05T19:04:34.586Z,7.33
2018-11-05T19:07:03.070Z,7.47
2018-11-05T19:09:31.593Z,7.37
2018-11-05T19:12:00.055Z,7.67
2018-11-05T19:14:28.522Z,8.00
2018-11-05T19:16:56.984Z,7.07
2018-11-05T19:19:25.453Z,7.50
2018-11-05T19:21:53.956Z,6.83
2018-11-05T19:24:22.676Z,7.20
2018-11-05T19:26:51.031Z,6.77
2018-11-05T19:29:19.505Z,7.30
2018-11-05T19:31:47.961Z,6.77
2018-11-05T19:34:16.444Z,7.40
2018-11-05T19:36:44.920Z,7.03
2018-11-05T19:39:14.275Z,6.93
2018-11-05T19:41:42.998Z,7.43
2018-11-05T19:44:11.435Z,7.13
2018-11-05T19:46:40.219Z,7.03
2018-11-05T19:49:08.708Z,7.03
2018-11-05T19:51:37.223Z,7.50
2018-11-05T19:54:05.755Z,7.40
2018-11-05T19:56:34.263Z,7.20
2018-11-05T19:59:02.747Z,6.63
2018-11-05T20:01:31.222Z,7.23
2018-11-05T20:03:59.706Z,7.30
2018-11-05T20:06:28.182Z,7.30
2018-11-05T20:08:56.692Z,6.93
2018-11-05T20:11:25.147Z,7.27
2018-11-05T20:13:54.021Z,6.87
2018-11-05T20:16:22.496Z,7.40
2018-11-05T20:18:50.964Z,7.20
2018-11-05T20:21:19.668Z,7.47
2018-11-05T20:23:48.361Z,7.40
2018-11-05T20:26:16.819Z,7.07
2018-11-05T20:28:45.329Z,7.43
2018-11-05T20:31:13.945Z,7.20
2018-11-05T20:33:42.423Z,7.37
2018-11-05T20:36:10.770Z,7.23
2018-11-05T20:38:39.271Z,7.60
2018-11-05T20:41:07.854Z,7.33
2018-11-05T20:43:36.318Z,6.83
2018-11-05T20:46:04.819Z,7.10
2018-11-05T20:48:33.300Z,7.00
2018-11-05T20:51:01.766Z,7.53
2018-11-05T20:53:30.265Z,7.33
2018-11-05T20:55:58.730Z,7.47
2018-11-05T20:58:27.191Z,7.63
2018-11-05T21:00:55.716Z,7.17
2018-11-05T21:03:24.168Z,6.80
2018-11-05T21:05:52.622Z,7.37
2018-11-05T21:08:21.089Z,7.47
2018-11-05T21:10:49.595Z,7.47
2018-11-05T21:13:18.071Z,7.27
2018-11-05T21:15:46.538Z,6.87
2018-11-05T21:18:15.017Z,7.27
2018-11-05T21:20:43.508Z,6.90
2018-11-05T21:23:12.020Z,7.27
2018-11-05T21:25:40.504Z,6.93
2018-11-05T21:28:08.967Z,7.27
2018-11-05T21:30:37.512Z,7.00
2018-11-05T21:33:06.255Z,7.33
2018-11-05T21:35:34.664Z,6.90
2018-11-05T21:38:03.157Z,7.13
2018-11-05T21:40:31.660Z,7.30
2018-11-05T21:43:00.154Z,6.97
2018-11-05T21:45:28.631Z,6.53
2018-11-05T21:47:57.152Z,6.80
2018-11-05T21:50:25.627Z,7.23
2018-11-05T21:52:54.127Z,7.10
2018-11-05T21:55:22.592Z,7.27
2018-11-05T21:57:51.088Z,7.50
2018-11-05T22:00:22.821Z,6.87
2018-11-05T22:02:56.568Z,7.63
2018-11-05T22:05:25.040Z,7.30
2018-11-05T22:07:53.517Z,7.27
2018-11-05T22:10:21.986Z,7.00
2018-11-05T22:12:50.455Z,7.63
2018-11-05T22:15:19.319Z,7.03
2018-11-05T22:17:48.486Z,7.00
2018-11-05T22:20:17.101Z,7.13
2018-11-05T22:22:46.431Z,7.30
2018-11-05T22:25:14.898Z,6.60
2018-11-05T22:27:43.367Z,6.87
2018-11-05T22:30:12.378Z,6.90
2018-11-05T22:32:40.834Z,7.57
2018-11-05T22:35:09.306Z,7.17
2018-11-05T22:37:38.212Z,7.17
2018-11-05T22:40:10.152Z,6.90
2018-11-05T22:42:39.310Z,7.73
2018-11-05T22:45:08.438Z,6.97
2018-11-05T22:47:37.742Z,7.07
2018-11-05T22:50:07.195Z,7.03
2018-11-05T22:52:36.253Z,7.03
2018-11-05T22:55:05.030Z,7.20
2018-11-05T22:57:34.482Z,6.60
2018-11-05T23:00:03.029Z,7.23
2018-11-05T23:02:31.438Z,7.27
2018-11-05T23:04:59.905Z,6.27
2018-11-05T23:07:28.361Z,6.80
2018-11-05T23:09:56.831Z,7.43
2018-11-05T23:12:25.291Z,6.97
2018-11-05T23:14:53.754Z,7.20
2018-11-05T23:17:22.248Z,7.27
2018-11-05T23:19:50.705Z,7.30
2018-11-05T23:22:19.162Z,7.47
2018-11-05T23:24:47.625Z,7.13
2018-11-05T23:27:16.096Z,7.47
2018-11-05T23:29:44.563Z,7.33
2018-11-05T23:32:13.016Z,6.83
2018-11-05T23:34:41.482Z,6.90
2018-11-05T23:37:09.956Z,7.23
2018-11-05T23:39:38.446Z,7.13
2018-11-05T23:42:06.923Z,6.47
2018-11-05T23:44:35.382Z,7.17
2018-11-05T23:47:03.863Z,6.80
2018-11-05T23:49:32.586Z,6.73
2018-11-05T23:52:01.276Z,6.80
2018-11-05T23:54:29.755Z,7.47
2018-11-05T23:56:58.217Z,6.93
2018-11-05T23:59:26.679Z,6.30
